Flugplatz Hahn (EDFH)

Hier findest Du alle Informationen zum Flugplatz Hahn (EDFH).

Informationen für Piloten zum Flugplatz Hahn

Hier findest Du alle relevanten Informationen, die Du als Pilot benötigst, um Hahn anzufliegen.

Flugplatz: Hahn ICAO-Code: EDFH
Frequenz Turm: 119,650 Mhz GAFOR Gebiet: 41
Frequenz Ground: 119,650 Mhz Mogas: nein
Platzrunde: - Landegebühr: -
Platzhöhe: - Sunrise: 03:24 Uhr UTC
Pisten: 03/21 - 2.745 m x , ASPH Sunset: 19:45 Uhr UTC

Mitglieder, die in Hahn fliegen

Flugwetter am Flugplatz Hahn

Die METAR Information stammen aus EDFH.

METAR Code:
2022/06/23 08:20
EDFH 230820Z 14011KT CAVOK 22/17 Q1014

Temperatur: 19,9 °C Niederschlag: - Wind: 8,0 kt
Temperatur (min.): 18,2 °C Luftdruck: 1024 hPa Windrichtung: 130 °
Temperatur (max.): 21,3 °C Luftfeuchtigkeit: 50 % Bewölkung: 2/8

Flugschulen am Flugplatz Hahn

Am Flugplatz Hahn gibt es leider keine Flugschule.

Benachbarte Flugplätze und Flugschulen

Es gibt 20 weitere Flugplätze in einem Umkreis von 50 km um den Flugplatz Hahn.

Jetzt anmelden

Passwort vergessen

Umfrage Archiv

Sendet Ihr ADS-B und/oder FLARM?

Ja
83.1 %
Nein
16.9 %
Stimmen: 177 | Diskussion
Anzeige: Roland Aircraft
Statistik Alle Mitglieder

Aktuell sind 65 Besucher online.

Anzeige: ULPower Aero Engines Anzeige: Pocket FMS